sensor_id;sensor_type;location;lat;lon;timestamp;P1;durP1;ratioP1;P2;durP2;ratioP2
22814;SDS011;11574;51.058;13.712;2023-06-01T00:03:02;5.47;;;2.87;;
22814;SDS011;11574;51.058;13.712;2023-06-01T00:08:05;5.97;;;3.27;;
22814;SDS011;11574;51.058;13.712;2023-06-01T00:13:07;8.37;;;3.90;;
22814;SDS011;11574;51.058;13.712;2023-06-01T00:18:11;9.00;;;3.80;;
22814;SDS011;11574;51.058;13.712;2023-06-01T00:23:15;5.33;;;3.10;;
22814;SDS011;11574;51.058;13.712;2023-06-01T00:28:20;9.73;;;3.87;;
22814;SDS011;11574;51.058;13.712;2023-06-01T00:33:23;7.17;;;3.23;;
22814;SDS011;11574;51.058;13.712;2023-06-01T00:38:25;9.83;;;3.23;;
22814;SDS011;11574;51.058;13.712;2023-06-01T00:43:28;6.43;;;3.30;;
22814;SDS011;11574;51.058;13.712;2023-06-01T00:48:31;8.90;;;3.30;;
22814;SDS011;11574;51.058;13.712;2023-06-01T00:53:33;12.03;;;3.60;;
22814;SDS011;11574;51.058;13.712;2023-06-01T00:58:36;13.27;;;3.30;;
22814;SDS011;11574;51.058;13.712;2023-06-01T01:03:39;9.60;;;3.70;;
22814;SDS011;11574;51.058;13.712;2023-06-01T01:08:47;5.20;;;2.97;;
22814;SDS011;11574;51.058;13.712;2023-06-01T01:13:54;8.23;;;3.40;;
22814;SDS011;11574;51.058;13.712;2023-06-01T01:19:00;7.20;;;3.63;;
22814;SDS011;11574;51.058;13.712;2023-06-01T01:24:15;7.60;;;3.33;;
22814;SDS011;11574;51.058;13.712;2023-06-01T01:29:23;4.70;;;2.87;;
22814;SDS011;11574;51.058;13.712;2023-06-01T01:34:28;5.30;;;2.83;;
22814;SDS011;11574;51.058;13.712;2023-06-01T01:39:30;10.77;;;2.80;;
22814;SDS011;11574;51.058;13.712;2023-06-01T01:44:33;4.80;;;2.47;;
22814;SDS011;11574;51.058;13.712;2023-06-01T01:49:39;10.37;;;3.23;;
22814;SDS011;11574;51.058;13.712;2023-06-01T01:54:43;7.17;;;2.80;;
22814;SDS011;11574;51.058;13.712;2023-06-01T01:59:47;10.03;;;3.33;;
22814;SDS011;11574;51.058;13.712;2023-06-01T02:04:49;9.30;;;2.90;;
22814;SDS011;11574;51.058;13.712;2023-06-01T02:09:51;6.00;;;2.63;;
22814;SDS011;11574;51.058;13.712;2023-06-01T02:14:55;5.10;;;2.70;;
22814;SDS011;11574;51.058;13.712;2023-06-01T02:19:57;6.73;;;3.00;;
22814;SDS011;11574;51.058;13.712;2023-06-01T02:25:00;7.57;;;3.53;;
22814;SDS011;11574;51.058;13.712;2023-06-01T02:30:07;6.37;;;3.00;;
22814;SDS011;11574;51.058;13.712;2023-06-01T02:35:09;7.33;;;3.13;;
22814;SDS011;11574;51.058;13.712;2023-06-01T02:40:11;6.73;;;3.07;;
22814;SDS011;11574;51.058;13.712;2023-06-01T02:45:15;9.27;;;3.10;;
22814;SDS011;11574;51.058;13.712;2023-06-01T02:50:17;6.67;;;3.00;;
22814;SDS011;11574;51.058;13.712;2023-06-01T02:55:19;5.10;;;2.40;;
22814;SDS011;11574;51.058;13.712;2023-06-01T03:00:23;6.53;;;2.40;;
22814;SDS011;11574;51.058;13.712;2023-06-01T03:05:27;4.50;;;2.47;;
22814;SDS011;11574;51.058;13.712;2023-06-01T03:10:30;5.43;;;2.43;;
22814;SDS011;11574;51.058;13.712;2023-06-01T03:15:33;4.30;;;2.67;;
22814;SDS011;11574;51.058;13.712;2023-06-01T03:20:37;5.30;;;2.73;;
22814;SDS011;11574;51.058;13.712;2023-06-01T03:25:39;8.60;;;2.60;;
22814;SDS011;11574;51.058;13.712;2023-06-01T03:30:43;6.27;;;2.53;;
22814;SDS011;11574;51.058;13.712;2023-06-01T03:35:46;6.40;;;2.80;;
22814;SDS011;11574;51.058;13.712;2023-06-01T03:40:49;7.53;;;3.10;;
22814;SDS011;11574;51.058;13.712;2023-06-01T03:45:53;8.60;;;2.83;;
22814;SDS011;11574;51.058;13.712;2023-06-01T03:50:55;6.47;;;3.10;;
22814;SDS011;11574;51.058;13.712;2023-06-01T03:55:58;5.83;;;3.20;;
22814;SDS011;11574;51.058;13.712;2023-06-01T04:01:02;5.57;;;3.30;;
22814;SDS011;11574;51.058;13.712;2023-06-01T04:06:05;5.40;;;3.47;;
22814;SDS011;11574;51.058;13.712;2023-06-01T04:11:12;7.87;;;3.50;;
22814;SDS011;11574;51.058;13.712;2023-06-01T04:16:15;9.40;;;3.20;;
22814;SDS011;11574;51.058;13.712;2023-06-01T04:21:19;8.00;;;2.93;;
22814;SDS011;11574;51.058;13.712;2023-06-01T04:26:22;8.73;;;3.20;;
22814;SDS011;11574;51.058;13.712;2023-06-01T04:31:26;7.80;;;3.33;;
22814;SDS011;11574;51.058;13.712;2023-06-01T04:36:29;8.27;;;3.53;;
22814;SDS011;11574;51.058;13.712;2023-06-01T04:41:33;7.50;;;3.27;;
22814;SDS011;11574;51.058;13.712;2023-06-01T04:46:37;13.87;;;3.13;;
22814;SDS011;11574;51.058;13.712;2023-06-01T04:51:41;6.67;;;3.47;;
22814;SDS011;11574;51.058;13.712;2023-06-01T04:56:44;8.50;;;3.45;;
22814;SDS011;11574;51.058;13.712;2023-06-01T05:01:48;7.72;;;3.60;;
22814;SDS011;11574;51.058;13.712;2023-06-01T05:06:51;9.10;;;3.22;;
22814;SDS011;11574;51.058;13.712;2023-06-01T05:11:53;14.98;;;3.45;;
22814;SDS011;11574;51.058;13.712;2023-06-01T05:16:57;6.63;;;3.10;;
22814;SDS011;11574;51.058;13.712;2023-06-01T05:22:00;18.13;;;3.88;;
22814;SDS011;11574;51.058;13.712;2023-06-01T05:27:02;10.27;;;3.78;;
22814;SDS011;11574;51.058;13.712;2023-06-01T05:32:08;17.67;;;4.63;;
22814;SDS011;11574;51.058;13.712;2023-06-01T05:37:10;14.20;;;4.65;;
22814;SDS011;11574;51.058;13.712;2023-06-01T05:42:12;11.35;;;4.93;;
22814;SDS011;11574;51.058;13.712;2023-06-01T05:47:16;9.07;;;3.92;;
22814;SDS011;11574;51.058;13.712;2023-06-01T05:52:18;10.02;;;3.85;;
22814;SDS011;11574;51.058;13.712;2023-06-01T05:57:20;7.47;;;3.15;;
22814;SDS011;11574;51.058;13.712;2023-06-01T06:02:24;6.97;;;3.10;;
22814;SDS011;11574;51.058;13.712;2023-06-01T06:07:26;10.15;;;4.10;;
22814;SDS011;11574;51.058;13.712;2023-06-01T06:12:28;14.80;;;3.92;;
22814;SDS011;11574;51.058;13.712;2023-06-01T06:17:32;9.50;;;3.15;;
22814;SDS011;11574;51.058;13.712;2023-06-01T06:22:38;9.88;;;3.15;;
22814;SDS011;11574;51.058;13.712;2023-06-01T06:27:46;11.00;;;3.13;;
22814;SDS011;11574;51.058;13.712;2023-06-01T06:32:49;10.52;;;3.00;;
22814;SDS011;11574;51.058;13.712;2023-06-01T06:37:51;11.10;;;3.30;;
22814;SDS011;11574;51.058;13.712;2023-06-01T06:42:54;6.72;;;3.22;;
22814;SDS011;11574;51.058;13.712;2023-06-01T06:47:58;7.38;;;2.83;;
22814;SDS011;11574;51.058;13.712;2023-06-01T06:53:00;8.75;;;3.50;;
22814;SDS011;11574;51.058;13.712;2023-06-01T06:58:03;7.47;;;2.70;;
22814;SDS011;11574;51.058;13.712;2023-06-01T07:03:06;11.10;;;3.20;;
22814;SDS011;11574;51.058;13.712;2023-06-01T07:08:09;11.18;;;3.28;;
22814;SDS011;11574;51.058;13.712;2023-06-01T07:13:12;8.93;;;3.55;;
22814;SDS011;11574;51.058;13.712;2023-06-01T07:18:15;10.32;;;4.00;;
22814;SDS011;11574;51.058;13.712;2023-06-01T07:23:18;5.43;;;3.30;;
22814;SDS011;11574;51.058;13.712;2023-06-01T07:28:20;7.07;;;2.95;;
22814;SDS011;11574;51.058;13.712;2023-06-01T07:33:28;7.57;;;2.60;;
22814;SDS011;11574;51.058;13.712;2023-06-01T07:38:30;5.82;;;2.72;;
22814;SDS011;11574;51.058;13.712;2023-06-01T07:43:35;10.43;;;3.60;;
22814;SDS011;11574;51.058;13.712;2023-06-01T07:48:39;7.57;;;3.97;;
22814;SDS011;11574;51.058;13.712;2023-06-01T07:53:41;9.25;;;3.25;;
22814;SDS011;11574;51.058;13.712;2023-06-01T07:58:44;9.20;;;3.28;;
22814;SDS011;11574;51.058;13.712;2023-06-01T08:03:47;5.63;;;2.53;;
22814;SDS011;11574;51.058;13.712;2023-06-01T08:08:51;5.70;;;2.95;;
22814;SDS011;11574;51.058;13.712;2023-06-01T08:13:53;8.18;;;2.58;;
22814;SDS011;11574;51.058;13.712;2023-06-01T08:18:57;8.43;;;2.75;;
22814;SDS011;11574;51.058;13.712;2023-06-01T08:23:59;6.78;;;2.90;;
22814;SDS011;11574;51.058;13.712;2023-06-01T08:29:02;9.10;;;2.80;;
22814;SDS011;11574;51.058;13.712;2023-06-01T08:34:06;7.00;;;2.70;;
22814;SDS011;11574;51.058;13.712;2023-06-01T08:44:26;6.40;;;2.45;;
22814;SDS011;11574;51.058;13.712;2023-06-01T08:49:31;9.73;;;2.47;;
22814;SDS011;11574;51.058;13.712;2023-06-01T08:54:34;3.63;;;2.10;;
22814;SDS011;11574;51.058;13.712;2023-06-01T08:59:36;9.57;;;3.00;;
22814;SDS011;11574;51.058;13.712;2023-06-01T09:04:40;12.52;;;2.45;;
22814;SDS011;11574;51.058;13.712;2023-06-01T09:09:44;3.90;;;2.15;;
22814;SDS011;11574;51.058;13.712;2023-06-01T09:14:47;9.40;;;2.38;;
22814;SDS011;11574;51.058;13.712;2023-06-01T09:19:53;9.57;;;2.58;;
22814;SDS011;11574;51.058;13.712;2023-06-01T09:24:56;6.97;;;2.60;;
22814;SDS011;11574;51.058;13.712;2023-06-01T09:29:59;4.10;;;2.00;;
22814;SDS011;11574;51.058;13.712;2023-06-01T09:35:02;22.35;;;2.88;;
22814;SDS011;11574;51.058;13.712;2023-06-01T09:40:17;7.57;;;2.40;;
22814;SDS011;11574;51.058;13.712;2023-06-01T09:45:19;7.10;;;2.13;;
22814;SDS011;11574;51.058;13.712;2023-06-01T09:50:33;11.00;;;2.38;;
22814;SDS011;11574;51.058;13.712;2023-06-01T09:55:36;9.68;;;2.40;;
22814;SDS011;11574;51.058;13.712;2023-06-01T10:00:41;10.18;;;2.60;;
22814;SDS011;11574;51.058;13.712;2023-06-01T10:05:47;4.82;;;2.47;;
22814;SDS011;11574;51.058;13.712;2023-06-01T10:10:50;5.05;;;2.05;;
22814;SDS011;11574;51.058;13.712;2023-06-01T10:15:53;7.32;;;2.50;;
22814;SDS011;11574;51.058;13.712;2023-06-01T10:20:57;28.83;;;2.80;;
22814;SDS011;11574;51.058;13.712;2023-06-01T10:26:00;7.95;;;2.17;;
22814;SDS011;11574;51.058;13.712;2023-06-01T10:36:27;6.35;;;2.22;;
22814;SDS011;11574;51.058;13.712;2023-06-01T10:41:48;6.75;;;2.30;;
22814;SDS011;11574;51.058;13.712;2023-06-01T10:46:50;6.45;;;2.40;;
22814;SDS011;11574;51.058;13.712;2023-06-01T10:57:20;9.48;;;2.33;;
22814;SDS011;11574;51.058;13.712;2023-06-01T11:02:23;5.32;;;2.25;;
22814;SDS011;11574;51.058;13.712;2023-06-01T11:07:35;12.15;;;2.33;;
22814;SDS011;11574;51.058;13.712;2023-06-01T11:18:00;7.70;;;2.45;;
22814;SDS011;11574;51.058;13.712;2023-06-01T11:23:22;6.60;;;2.50;;
22814;SDS011;11574;51.058;13.712;2023-06-01T11:28:24;7.60;;;2.75;;
22814;SDS011;11574;51.058;13.712;2023-06-01T11:33:28;4.90;;;2.47;;
22814;SDS011;11574;51.058;13.712;2023-06-01T11:38:32;9.18;;;3.28;;
22814;SDS011;11574;51.058;13.712;2023-06-01T11:43:35;7.07;;;2.83;;
22814;SDS011;11574;51.058;13.712;2023-06-01T11:48:38;6.07;;;2.67;;
22814;SDS011;11574;51.058;13.712;2023-06-01T11:53:40;5.32;;;2.90;;
22814;SDS011;11574;51.058;13.712;2023-06-01T11:58:43;6.97;;;3.30;;
22814;SDS011;11574;51.058;13.712;2023-06-01T12:03:47;10.63;;;3.22;;
22814;SDS011;11574;51.058;13.712;2023-06-01T12:08:50;7.55;;;3.00;;
22814;SDS011;11574;51.058;13.712;2023-06-01T12:13:52;7.55;;;2.72;;
22814;SDS011;11574;51.058;13.712;2023-06-01T12:18:56;6.32;;;2.75;;
22814;SDS011;11574;51.058;13.712;2023-06-01T12:23:58;8.40;;;3.00;;
22814;SDS011;11574;51.058;13.712;2023-06-01T12:29:01;7.43;;;2.95;;
22814;SDS011;11574;51.058;13.712;2023-06-01T12:34:15;9.35;;;3.20;;
22814;SDS011;11574;51.058;13.712;2023-06-01T12:39:25;6.53;;;3.47;;
22814;SDS011;11574;51.058;13.712;2023-06-01T12:44:36;6.47;;;3.38;;
22814;SDS011;11574;51.058;13.712;2023-06-01T12:49:41;13.07;;;4.20;;
22814;SDS011;11574;51.058;13.712;2023-06-01T12:55:03;6.10;;;3.42;;
22814;SDS011;11574;51.058;13.712;2023-06-01T13:00:06;8.38;;;3.55;;
22814;SDS011;11574;51.058;13.712;2023-06-01T13:05:10;9.73;;;4.00;;
22814;SDS011;11574;51.058;13.712;2023-06-01T13:10:12;10.20;;;4.20;;
22814;SDS011;11574;51.058;13.712;2023-06-01T13:15:15;14.18;;;4.10;;
22814;SDS011;11574;51.058;13.712;2023-06-01T13:20:19;8.90;;;4.55;;
22814;SDS011;11574;51.058;13.712;2023-06-01T13:25:22;10.60;;;4.10;;
22814;SDS011;11574;51.058;13.712;2023-06-01T13:30:25;11.32;;;4.38;;
22814;SDS011;11574;51.058;13.712;2023-06-01T13:35:29;9.52;;;5.15;;
22814;SDS011;11574;51.058;13.712;2023-06-01T13:40:32;11.45;;;4.78;;
22814;SDS011;11574;51.058;13.712;2023-06-01T13:45:35;9.50;;;5.10;;
22814;SDS011;11574;51.058;13.712;2023-06-01T13:50:38;9.32;;;5.43;;
22814;SDS011;11574;51.058;13.712;2023-06-01T13:55:52;8.05;;;5.63;;
22814;SDS011;11574;51.058;13.712;2023-06-01T14:00:57;11.13;;;5.95;;
22814;SDS011;11574;51.058;13.712;2023-06-01T14:06:00;9.40;;;5.20;;
22814;SDS011;11574;51.058;13.712;2023-06-01T14:11:04;10.82;;;5.50;;
22814;SDS011;11574;51.058;13.712;2023-06-01T14:16:07;9.02;;;5.57;;
22814;SDS011;11574;51.058;13.712;2023-06-01T14:21:10;9.57;;;6.63;;
22814;SDS011;11574;51.058;13.712;2023-06-01T14:26:27;8.35;;;5.22;;
22814;SDS011;11574;51.058;13.712;2023-06-01T14:31:30;8.98;;;4.60;;
22814;SDS011;11574;51.058;13.712;2023-06-01T14:36:32;9.75;;;4.50;;
22814;SDS011;11574;51.058;13.712;2023-06-01T14:41:38;9.00;;;4.50;;
22814;SDS011;11574;51.058;13.712;2023-06-01T14:46:51;5.18;;;3.45;;
22814;SDS011;11574;51.058;13.712;2023-06-01T14:52:11;5.07;;;3.20;;
22814;SDS011;11574;51.058;13.712;2023-06-01T14:57:15;8.95;;;3.63;;
22814;SDS011;11574;51.058;13.712;2023-06-01T15:02:18;5.45;;;3.33;;
22814;SDS011;11574;51.058;13.712;2023-06-01T15:07:21;5.53;;;2.78;;
22814;SDS011;11574;51.058;13.712;2023-06-01T15:12:24;5.03;;;3.25;;
22814;SDS011;11574;51.058;13.712;2023-06-01T15:17:26;6.90;;;3.28;;
22814;SDS011;11574;51.058;13.712;2023-06-01T15:22:31;6.85;;;3.92;;
22814;SDS011;11574;51.058;13.712;2023-06-01T15:27:35;6.68;;;3.45;;
22814;SDS011;11574;51.058;13.712;2023-06-01T15:32:39;5.20;;;3.70;;
22814;SDS011;11574;51.058;13.712;2023-06-01T15:37:45;8.73;;;3.70;;
22814;SDS011;11574;51.058;13.712;2023-06-01T15:42:49;7.45;;;4.22;;
22814;SDS011;11574;51.058;13.712;2023-06-01T15:47:51;5.72;;;4.10;;
22814;SDS011;11574;51.058;13.712;2023-06-01T15:52:54;7.00;;;3.53;;
22814;SDS011;11574;51.058;13.712;2023-06-01T15:57:57;7.07;;;3.78;;
22814;SDS011;11574;51.058;13.712;2023-06-01T16:03:00;6.65;;;3.50;;
22814;SDS011;11574;51.058;13.712;2023-06-01T16:08:02;4.80;;;3.92;;
22814;SDS011;11574;51.058;13.712;2023-06-01T16:13:06;6.43;;;4.45;;
22814;SDS011;11574;51.058;13.712;2023-06-01T16:18:08;6.72;;;4.20;;
22814;SDS011;11574;51.058;13.712;2023-06-01T16:23:10;5.13;;;4.07;;
22814;SDS011;11574;51.058;13.712;2023-06-01T16:28:14;6.00;;;3.58;;
22814;SDS011;11574;51.058;13.712;2023-06-01T16:33:16;5.55;;;3.42;;
22814;SDS011;11574;51.058;13.712;2023-06-01T16:38:18;5.88;;;2.92;;
22814;SDS011;11574;51.058;13.712;2023-06-01T16:43:22;5.07;;;3.03;;
22814;SDS011;11574;51.058;13.712;2023-06-01T16:48:24;4.57;;;3.03;;
22814;SDS011;11574;51.058;13.712;2023-06-01T16:53:26;5.27;;;2.60;;
22814;SDS011;11574;51.058;13.712;2023-06-01T16:58:30;7.70;;;4.37;;
22814;SDS011;11574;51.058;13.712;2023-06-01T17:03:34;6.13;;;3.60;;
22814;SDS011;11574;51.058;13.712;2023-06-01T17:08:36;5.70;;;4.30;;
22814;SDS011;11574;51.058;13.712;2023-06-01T17:13:40;4.37;;;3.50;;
22814;SDS011;11574;51.058;13.712;2023-06-01T17:18:42;8.43;;;4.10;;
22814;SDS011;11574;51.058;13.712;2023-06-01T17:23:44;7.93;;;3.77;;
22814;SDS011;11574;51.058;13.712;2023-06-01T17:28:48;11.27;;;3.77;;
22814;SDS011;11574;51.058;13.712;2023-06-01T17:33:50;5.90;;;3.10;;
22814;SDS011;11574;51.058;13.712;2023-06-01T17:38:52;5.73;;;3.23;;
22814;SDS011;11574;51.058;13.712;2023-06-01T17:43:56;7.63;;;3.47;;
22814;SDS011;11574;51.058;13.712;2023-06-01T17:48:58;6.67;;;3.07;;
22814;SDS011;11574;51.058;13.712;2023-06-01T17:54:00;7.00;;;3.40;;
22814;SDS011;11574;51.058;13.712;2023-06-01T17:59:04;8.37;;;2.70;;
22814;SDS011;11574;51.058;13.712;2023-06-01T18:04:06;8.53;;;3.33;;
22814;SDS011;11574;51.058;13.712;2023-06-01T18:09:08;6.30;;;3.00;;
22814;SDS011;11574;51.058;13.712;2023-06-01T18:14:12;9.47;;;3.23;;
22814;SDS011;11574;51.058;13.712;2023-06-01T18:19:14;7.83;;;3.07;;
22814;SDS011;11574;51.058;13.712;2023-06-01T18:24:17;9.83;;;3.60;;
22814;SDS011;11574;51.058;13.712;2023-06-01T18:29:21;10.00;;;3.40;;
22814;SDS011;11574;51.058;13.712;2023-06-01T18:34:23;9.87;;;3.17;;
22814;SDS011;11574;51.058;13.712;2023-06-01T18:39:25;5.03;;;2.83;;
22814;SDS011;11574;51.058;13.712;2023-06-01T18:44:33;8.10;;;3.23;;
22814;SDS011;11574;51.058;13.712;2023-06-01T18:49:39;6.93;;;3.20;;
22814;SDS011;11574;51.058;13.712;2023-06-01T18:54:42;8.10;;;3.60;;
22814;SDS011;11574;51.058;13.712;2023-06-01T18:59:46;5.23;;;3.70;;
22814;SDS011;11574;51.058;13.712;2023-06-01T19:04:49;8.97;;;3.93;;
22814;SDS011;11574;51.058;13.712;2023-06-01T19:09:52;7.23;;;3.30;;
22814;SDS011;11574;51.058;13.712;2023-06-01T19:14:56;7.57;;;3.47;;
22814;SDS011;11574;51.058;13.712;2023-06-01T19:19:58;8.10;;;3.40;;
22814;SDS011;11574;51.058;13.712;2023-06-01T19:25:01;6.20;;;2.97;;
22814;SDS011;11574;51.058;13.712;2023-06-01T19:30:05;6.57;;;3.43;;
22814;SDS011;11574;51.058;13.712;2023-06-01T19:35:08;10.60;;;3.40;;
22814;SDS011;11574;51.058;13.712;2023-06-01T19:40:11;10.40;;;3.90;;
22814;SDS011;11574;51.058;13.712;2023-06-01T19:45:20;11.37;;;4.53;;
22814;SDS011;11574;51.058;13.712;2023-06-01T19:50:40;8.37;;;3.33;;
22814;SDS011;11574;51.058;13.712;2023-06-01T19:55:44;7.70;;;3.37;;
22814;SDS011;11574;51.058;13.712;2023-06-01T20:00:48;14.80;;;4.40;;
22814;SDS011;11574;51.058;13.712;2023-06-01T20:05:51;6.77;;;3.63;;
22814;SDS011;11574;51.058;13.712;2023-06-01T20:10:53;14.63;;;4.37;;
22814;SDS011;11574;51.058;13.712;2023-06-01T20:16:01;12.03;;;3.87;;
22814;SDS011;11574;51.058;13.712;2023-06-01T20:21:03;13.13;;;4.43;;
22814;SDS011;11574;51.058;13.712;2023-06-01T20:26:06;6.93;;;4.03;;
22814;SDS011;11574;51.058;13.712;2023-06-01T20:31:15;9.50;;;3.93;;
22814;SDS011;11574;51.058;13.712;2023-06-01T20:36:24;9.63;;;4.80;;
22814;SDS011;11574;51.058;13.712;2023-06-01T20:41:28;9.53;;;3.73;;
22814;SDS011;11574;51.058;13.712;2023-06-01T20:46:31;7.67;;;3.60;;
22814;SDS011;11574;51.058;13.712;2023-06-01T20:51:35;10.70;;;4.87;;
22814;SDS011;11574;51.058;13.712;2023-06-01T20:56:37;7.53;;;4.17;;
22814;SDS011;11574;51.058;13.712;2023-06-01T21:01:42;6.30;;;3.83;;
22814;SDS011;11574;51.058;13.712;2023-06-01T21:06:44;8.00;;;3.97;;
22814;SDS011;11574;51.058;13.712;2023-06-01T21:11:47;7.90;;;3.93;;
22814;SDS011;11574;51.058;13.712;2023-06-01T21:16:51;11.77;;;5.37;;
22814;SDS011;11574;51.058;13.712;2023-06-01T21:21:53;10.23;;;3.67;;
22814;SDS011;11574;51.058;13.712;2023-06-01T21:26:55;13.60;;;4.80;;
22814;SDS011;11574;51.058;13.712;2023-06-01T21:31:59;12.00;;;4.33;;
22814;SDS011;11574;51.058;13.712;2023-06-01T21:37:01;9.20;;;4.30;;
22814;SDS011;11574;51.058;13.712;2023-06-01T21:42:04;7.17;;;3.73;;
22814;SDS011;11574;51.058;13.712;2023-06-01T21:47:08;9.90;;;4.13;;
22814;SDS011;11574;51.058;13.712;2023-06-01T21:52:14;10.07;;;4.23;;
22814;SDS011;11574;51.058;13.712;2023-06-01T21:57:17;6.80;;;3.53;;
22814;SDS011;11574;51.058;13.712;2023-06-01T22:02:20;13.83;;;4.70;;
22814;SDS011;11574;51.058;13.712;2023-06-01T22:07:23;9.90;;;3.70;;
22814;SDS011;11574;51.058;13.712;2023-06-01T22:12:27;10.13;;;4.13;;
22814;SDS011;11574;51.058;13.712;2023-06-01T22:17:31;11.33;;;4.17;;
22814;SDS011;11574;51.058;13.712;2023-06-01T22:22:34;8.90;;;4.33;;
22814;SDS011;11574;51.058;13.712;2023-06-01T22:27:36;9.97;;;4.13;;
22814;SDS011;11574;51.058;13.712;2023-06-01T22:32:40;11.17;;;3.63;;
22814;SDS011;11574;51.058;13.712;2023-06-01T22:37:42;10.60;;;4.80;;
22814;SDS011;11574;51.058;13.712;2023-06-01T22:42:44;10.63;;;4.53;;
22814;SDS011;11574;51.058;13.712;2023-06-01T22:47:48;11.70;;;4.50;;
22814;SDS011;11574;51.058;13.712;2023-06-01T22:52:51;10.97;;;3.90;;
22814;SDS011;11574;51.058;13.712;2023-06-01T22:57:53;7.97;;;4.47;;
22814;SDS011;11574;51.058;13.712;2023-06-01T23:02:57;14.37;;;4.17;;
22814;SDS011;11574;51.058;13.712;2023-06-01T23:07:59;8.87;;;4.13;;
22814;SDS011;11574;51.058;13.712;2023-06-01T23:13:11;8.63;;;4.10;;
22814;SDS011;11574;51.058;13.712;2023-06-01T23:18:15;8.37;;;3.90;;
22814;SDS011;11574;51.058;13.712;2023-06-01T23:23:17;9.53;;;3.67;;
22814;SDS011;11574;51.058;13.712;2023-06-01T23:28:20;6.47;;;3.63;;
22814;SDS011;11574;51.058;13.712;2023-06-01T23:33:23;10.87;;;4.17;;
22814;SDS011;11574;51.058;13.712;2023-06-01T23:38:30;9.77;;;4.00;;
22814;SDS011;11574;51.058;13.712;2023-06-01T23:43:32;11.53;;;4.60;;
22814;SDS011;11574;51.058;13.712;2023-06-01T23:48:36;9.03;;;4.00;;
22814;SDS011;11574;51.058;13.712;2023-06-01T23:53:39;9.43;;;4.27;;
22814;SDS011;11574;51.058;13.712;2023-06-01T23:58:41;13.27;;;4.33;;
